Rio Dell, California
Current Conditions -  °F | °C
As of 10:50 AM on Friday 24 Oct 2014 (Local Time) from KFOT Reporting Station
Overcast Overcast  
Wind Chill: 64°   Ceiling: 3700
Heat Index: 64°   Visibility: 10mi
Dew Point: 55°   Wind: 16mph
Humidity: 73%   Direction: 150°SSE
Pressure: 29.86"   Gusts: 24mph
Location:  40.5°N, 124.11°W
Report Text: KFOT 241750Z AUTO 15014G21KT 10SM BKN037 OVC045 18/13 A2986 RMK AO1
Loading
Personal Weather Stations






























Interactive Weather Map
Tropical Storm Tracking
New forecast layout! Learn more

10-Day Weather Forecast

Advertisements
Track Severe Weather on mobile